Weather at Baalbek Airfield [CLOSED]

Public forecast

Using degrees Celsius for public forecast. Weather courtesy of forecast.io.

Closest aviation weather report (METAR) to Baalbek Airfield

Closest report is Beirut Rafic Hariri International Airport, 36.7 nm (68.0 km) WSW. Retrieved 2022/01/19 08:00 UTC (35 minutes ago):

OLBA 190800Z 29015KT 5000 -RA FEW036 BKN046 12/04 Q1017 NOSIG

Closest aviation forecast (TAF) to Baalbek Airfield

Closest forecast is Beirut Rafic Hariri International Airport, 36.7 nm (68.0 km) WSW. Retrieved 2022/01/19 06:00 UTC (3 hours ago):

TAF OLBA 190400Z 1906/2012 29025G35KT 5000 RA BKN025 TEMPO 1906/2006 2000 TSSHRA FEW020CB OVC023 BECMG 2006/2009 20015KT 8000 SCT027